Time;durP1;ratioP1;P1;durP2;ratioP2;P2;SDS_P1;SDS_P2;PMS_P1;PMS_P2;Temp;Humidity;BMP_temperature;BMP_pressure;BME280_temperature;BME280_humidity;BME280_pressure;Samples;Min_cycle;Max_cycle;Signal;HPM_P1;HPM_P2
2022/02/10 00:04:46;;;;;;;6.97;4.30;;;1.90;95.30;;;;;;5024407;28;20045;-67
2022/02/10 00:20:45;;;;;;;8.07;3.25;;;1.90;95.40;;;;;;5026267;28;20328;-69
2022/02/10 00:36:39;;;;;;;11.10;4.38;;;1.90;95.50;;;;;;5032154;28;20041;-68
2022/02/10 00:41:40;;;;;;;10.68;4.55;;;1.70;96.20;;;;;;5028136;28;20054;-68
2022/02/10 00:44:06;;;;;;;11.55;4.60;;;1.60;96.60;;;;;;5032799;28;20048;-68
2022/02/10 00:46:31;;;;;;;7.18;3.03;;;1.50;97.00;;;;;;5032780;28;20048;-68
2022/02/10 00:48:57;;;;;;;15.35;5.25;;;1.70;96.80;;;;;;5029744;28;20032;-68
2022/02/10 00:51:22;;;;;;;10.10;3.63;;;1.90;96.10;;;;;;5038719;28;20056;-68
2022/02/10 00:53:48;;;;;;;11.38;4.47;;;1.90;96.00;;;;;;5048875;28;20033;-68
2022/02/10 00:56:14;;;;;;;6.63;2.88;;;1.80;96.00;;;;;;5054895;28;20041;-68
2022/02/10 00:58:43;;;;;;;11.10;3.72;;;1.80;96.70;;;;;;5032861;28;20022;-67
2022/02/10 01:30:37;;;;;;;;;;;1.90;96.00;;;;;;5036872;28;20078;-68
2022/02/10 01:33:09;;;;;;;4.03;2.28;;;1.90;95.80;;;;;;5030552;28;20291;-68
2022/02/10 01:35:38;;;;;;;4.53;2.10;;;1.80;96.00;;;;;;5029925;28;20026;-67
2022/02/10 01:38:04;;;;;;;4.05;1.73;;;1.70;96.10;;;;;;5033184;28;20038;-67
2022/02/10 02:04:52;;;;;;;;;;;2.20;94.10;;;;;;5021871;28;20056;-69
2022/02/10 02:07:27;;;;;;;5.75;2.40;;;2.10;94.00;;;;;;5052673;28;19909;-69
2022/02/10 02:09:52;;;;;;;5.28;2.20;;;2.00;94.30;;;;;;5037905;28;20127;-68
2022/02/10 02:12:18;;;;;;;5.57;2.40;;;1.90;94.40;;;;;;5037476;28;20064;-67
2022/02/10 02:14:44;;;;;;;5.22;2.95;;;2.00;93.70;;;;;;5036646;28;20017;-67
2022/02/10 02:17:09;;;;;;;4.47;2.13;;;2.00;93.90;;;;;;5035446;28;20426;-67
2022/02/10 02:19:36;;;;;;;5.03;2.15;;;2.00;93.70;;;;;;5036361;28;20033;-67
2022/02/10 02:22:09;;;;;;;4.32;2.10;;;1.90;94.20;;;;;;5037467;28;20033;-68
2022/02/10 02:24:36;;;;;;;5.35;2.50;;;2.00;93.90;;;;;;5037484;28;20371;-68
2022/02/10 02:27:05;;;;;;;4.28;1.98;;;2.10;93.40;;;;;;5036562;28;20031;-68
2022/02/10 02:29:37;;;;;;;3.35;1.63;;;2.00;93.60;;;;;;5037431;28;20108;-68
2022/02/10 02:32:10;;;;;;;3.70;1.85;;;2.00;93.30;;;;;;5031931;28;20029;-68
2022/02/10 02:40:23;;;;;;;;;;;1.90;93.40;;;;;;5041369;28;20036;-69
2022/02/10 03:07:08;;;;;;;4.97;1.77;;;2.70;90.20;;;;;;5033964;28;20354;-68
2022/02/10 03:09:40;;;;;;;5.97;2.40;;;2.90;89.70;;;;;;5029667;28;20037;-68
2022/02/10 03:12:06;;;;;;;4.63;1.85;;;3.10;89.00;;;;;;5036415;28;20029;-68
2022/02/10 03:14:36;;;;;;;5.32;2.10;;;3.20;88.50;;;;;;5025381;28;20038;-68
2022/02/10 03:22:40;;;;;;;4.80;1.92;;;3.00;89.40;;;;;;5025996;28;20323;-67
2022/02/10 04:00:05;;;;;;;5.95;2.47;;;3.10;89.30;;;;;;5028905;28;20024;-67
2022/02/10 04:01:41;;;;;;;6.70;2.10;;;4.10;85.40;;;;;;5035850;28;20064;-68
2022/02/10 04:09:34;;;;;;;5.50;2.00;;;4.30;85.20;;;;;;5040440;28;20087;-67
2022/02/10 04:12:08;;;;;;;4.70;2.10;;;4.00;86.00;;;;;;5027456;28;20034;-67
2022/02/10 04:15:28;;;;;;;4.35;1.98;;;3.80;86.60;;;;;;5016096;28;20022;-68
2022/02/10 04:22:44;;;;;;;6.57;2.50;;;3.50;87.90;;;;;;5034025;28;20038;-69
2022/02/10 04:58:32;;;;;;;4.72;2.03;;;2.80;91.30;;;;;;5033562;28;20037;-68
2022/02/10 05:37:58;;;;;;;7.53;3.00;;;3.40;90.60;;;;;;5038576;28;20030;-67
2022/02/10 06:46:59;;;;;;;9.02;3.50;;;6.60;83.70;;;;;;5036335;28;20337;-67
2022/02/10 07:47:16;;;;;;;7.68;3.70;;;7.60;82.60;;;;;;5035703;28;20109;-68
2022/02/10 07:49:43;;;;;;;7.75;3.28;;;7.70;82.30;;;;;;5031916;28;20038;-68
2022/02/10 07:52:39;;;;;;;11.93;3.67;;;7.60;82.60;;;;;;5036327;28;20025;-69
2022/02/10 07:58:16;;;;;;;;;;;7.80;82.40;;;;;;5019425;28;20366;-68
2022/02/10 09:03:22;;;;;;;7.53;3.28;;;11.60;73.50;;;;;;5037746;28;20048;-68
2022/02/10 09:06:08;;;;;;;5.65;2.90;;;12.00;72.80;;;;;;5039185;28;20151;-68
2022/02/10 10:01:46;;;;;;;9.80;3.58;;;12.70;70.70;;;;;;5038135;28;20022;-68
2022/02/10 10:04:20;;;;;;;8.25;4.00;;;12.60;70.70;;;;;;5024729;28;20018;-67
2022/02/10 10:22:48;;;;;;;6.57;3.47;;;13.30;69.90;;;;;;5045618;28;20484;-68
2022/02/10 10:50:57;;;;;;;13.55;4.47;;;13.10;70.50;;;;;;5036723;28;20029;-68
2022/02/10 10:56:37;;;;;;;8.73;3.95;;;13.20;71.00;;;;;;5036807;28;20037;-67
2022/02/10 11:38:12;;;;;;;13.88;4.47;;;13.90;70.90;;;;;;5036112;28;20448;-68
2022/02/10 11:41:06;;;;;;;10.63;4.43;;;14.00;70.10;;;;;;5036081;28;20103;-68
2022/02/10 14:09:16;;;;;;;13.77;5.88;;;9.40;84.90;;;;;;5032954;28;20036;-67
2022/02/10 14:14:27;;;;;;;9.15;4.85;;;9.20;85.10;;;;;;5037713;28;20091;-67
2022/02/10 14:17:00;;;;;;;12.90;5.75;;;9.10;85.60;;;;;;5036648;28;20422;-67
2022/02/10 14:19:37;;;;;;;10.85;5.47;;;9.10;85.70;;;;;;5034763;28;20091;-67
2022/02/10 14:27:28;;;;;;;13.43;6.85;;;8.90;85.90;;;;;;5037496;28;20048;-67
2022/02/10 14:29:54;;;;;;;11.32;5.75;;;8.90;86.20;;;;;;5037531;28;20025;-68
2022/02/10 14:32:24;;;;;;;10.80;5.72;;;8.90;86.40;;;;;;5028445;28;20438;-68
2022/02/10 14:34:53;;;;;;;14.43;6.45;;;9.00;86.10;;;;;;5037292;28;20040;-68
2022/02/10 14:37:33;;;;;;;11.00;5.72;;;9.00;85.90;;;;;;5037017;28;20302;-68
2022/02/10 15:11:01;;;;;;;11.18;5.70;;;8.70;86.30;;;;;;5036099;28;20039;-67
2022/02/10 15:14:19;;;;;;;16.23;8.65;;;8.10;90.30;;;;;;5036533;28;20330;-68
2022/02/10 15:21:40;;;;;;;18.08;10.32;;;7.90;91.30;;;;;;5036396;28;20137;-67
2022/02/10 16:18:13;;;;;;;11.43;6.88;;;6.60;93.30;;;;;;5033655;28;20037;-66
2022/02/10 16:20:46;;;;;;;10.63;5.75;;;6.50;93.60;;;;;;5035875;28;20425;-67
2022/02/10 16:23:16;;;;;;;12.82;5.72;;;6.50;93.40;;;;;;5035441;28;20027;-67
2022/02/10 16:25:49;;;;;;;10.75;6.32;;;6.40;93.40;;;;;;5035835;28;20358;-69
2022/02/10 16:30:47;;;;;;;14.23;7.05;;;6.30;93.60;;;;;;5035598;28;20092;-68
2022/02/10 16:33:12;;;;;;;14.15;6.90;;;6.30;93.60;;;;;;5033967;28;20026;-68
2022/02/10 16:35:39;;;;;;;12.02;6.28;;;6.30;93.50;;;;;;5035467;28;20096;-68
2022/02/10 16:38:05;;;;;;;16.20;7.13;;;6.30;93.50;;;;;;5035325;28;20084;-68
2022/02/10 16:40:33;;;;;;;14.18;7.43;;;6.20;93.20;;;;;;5035634;28;20037;-68
2022/02/10 16:42:59;;;;;;;17.60;8.57;;;6.20;93.50;;;;;;5032753;28;20021;-68
2022/02/10 16:45:25;;;;;;;11.82;6.40;;;6.20;93.80;;;;;;5031300;28;20030;-68
2022/02/10 16:47:51;;;;;;;16.85;7.85;;;6.20;93.70;;;;;;5020779;28;20026;-68
2022/02/10 16:50:18;;;;;;;18.98;10.93;;;6.20;93.80;;;;;;5020347;28;20469;-66
2022/02/10 16:52:47;;;;;;;13.73;7.85;;;6.20;93.90;;;;;;5033528;28;20022;-67
2022/02/10 17:20:11;;;;;;;11.40;6.43;;;6.10;93.70;;;;;;5045493;28;20060;-66
2022/02/10 17:25:25;;;;;;;14.45;8.48;;;6.00;93.50;;;;;;5037819;28;20031;-66
2022/02/10 17:27:57;;;;;;;13.57;7.10;;;6.00;93.50;;;;;;5036970;28;20022;-66
2022/02/10 17:33:16;;;;;;;9.65;5.93;;;6.00;93.70;;;;;;5036707;28;20381;-67
2022/02/10 17:46:24;;;;;;;9.38;4.70;;;6.00;93.40;;;;;;5047866;28;20323;-67
2022/02/10 17:54:02;;;;;;;11.48;5.60;;;6.00;93.30;;;;;;5037474;28;20117;-65
2022/02/10 17:56:29;;;;;;;9.73;5.00;;;6.00;93.20;;;;;;5038034;28;20037;-66
2022/02/10 17:58:56;;;;;;;11.77;5.60;;;6.00;93.40;;;;;;5037711;28;20017;-66
2022/02/10 18:01:22;;;;;;;16.85;6.63;;;6.00;93.60;;;;;;5037106;28;20123;-66
2022/02/10 18:03:48;;;;;;;18.30;8.57;;;6.00;93.70;;;;;;5036137;28;20022;-66
2022/02/10 18:06:23;;;;;;;14.35;6.90;;;5.90;93.70;;;;;;5037701;28;20381;-67
2022/02/10 18:17:05;;;;;;;13.38;7.18;;;5.90;94.20;;;;;;5037367;28;20040;-68
2022/02/10 18:19:35;;;;;;;9.77;5.70;;;5.90;94.50;;;;;;5037171;28;20025;-67
2022/02/10 18:24:53;;;;;;;11.82;6.25;;;5.80;94.80;;;;;;5033836;28;19916;-67
2022/02/10 18:27:28;;;;;;;11.57;6.30;;;5.80;94.70;;;;;;5036871;28;20048;-67
2022/02/10 18:54:34;;;;;;;;;;;5.80;94.90;;;;;;5032106;28;20495;-67
2022/02/10 19:10:13;;;;;;;10.63;5.35;;;5.80;95.40;;;;;;5032565;28;20104;-66
2022/02/10 19:12:52;;;;;;;6.82;4.20;;;5.80;95.40;;;;;;5033040;28;20029;-67
2022/02/10 19:15:26;;;;;;;11.77;5.50;;;5.70;95.80;;;;;;5032375;28;20029;-67
2022/02/10 19:17:52;;;;;;;10.45;5.30;;;5.80;95.80;;;;;;5032732;28;20314;-66
2022/02/10 19:20:21;;;;;;;8.23;5.05;;;5.80;95.50;;;;;;5035639;28;20030;-68
2022/02/10 19:22:47;;;;;;;11.02;5.78;;;5.80;95.40;;;;;;5032636;28;20022;-69
2022/02/10 19:25:13;;;;;;;9.13;4.88;;;5.80;95.50;;;;;;5036335;28;20017;-68
2022/02/10 19:27:43;;;;;;;40.75;16.52;;;5.80;95.50;;;;;;5035377;28;20037;-68
2022/02/10 19:30:13;;;;;;;19.13;9.75;;;5.80;95.20;;;;;;5021342;28;20029;-68
2022/02/10 19:32:43;;;;;;;32.38;15.00;;;5.80;95.50;;;;;;5032154;28;20021;-68
2022/02/10 19:35:12;;;;;;;14.40;7.47;;;5.80;95.40;;;;;;5035202;28;20045;-66
2022/02/10 19:37:38;;;;;;;20.35;8.27;;;5.80;95.70;;;;;;5032053;28;20029;-67
2022/02/10 19:40:04;;;;;;;23.60;10.02;;;5.80;95.50;;;;;;5033029;28;20083;-68
2022/02/10 19:42:33;;;;;;;13.20;6.28;;;5.80;95.50;;;;;;5021651;28;20044;-67
2022/02/10 19:45:01;;;;;;;16.58;7.97;;;5.80;95.50;;;;;;5039796;28;20021;-68
2022/02/10 19:47:28;;;;;;;11.77;6.70;;;5.80;95.50;;;;;;5036217;28;20035;-67
2022/02/10 19:49:53;;;;;;;9.82;5.78;;;5.80;95.40;;;;;;5034185;28;20025;-66
2022/02/10 19:52:20;;;;;;;12.90;7.75;;;5.90;95.10;;;;;;5033749;28;20431;-67
2022/02/10 19:54:50;;;;;;;9.43;5.38;;;5.90;95.10;;;;;;5032440;28;20083;-67
2022/02/10 19:57:19;;;;;;;14.63;8.88;;;6.00;94.90;;;;;;5035184;28;20429;-68
2022/02/10 19:59:45;;;;;;;9.75;5.22;;;5.90;95.00;;;;;;5034754;28;20025;-67
2022/02/10 20:02:12;;;;;;;11.77;5.20;;;5.90;94.80;;;;;;5029892;28;20026;-69
2022/02/10 20:04:38;;;;;;;9.30;4.65;;;5.90;94.80;;;;;;5034504;28;20029;-67
2022/02/10 20:07:04;;;;;;;15.70;5.10;;;5.90;95.00;;;;;;5032509;28;20063;-67
2022/02/10 20:09:29;;;;;;;7.93;4.53;;;5.80;94.90;;;;;;5029906;28;20403;-67
2022/02/10 20:11:58;;;;;;;10.07;4.30;;;5.80;94.90;;;;;;5029785;28;20036;-66
2022/02/10 20:14:25;;;;;;;10.77;6.25;;;5.90;94.50;;;;;;5030798;28;20041;-67
2022/02/10 20:16:54;;;;;;;9.63;4.95;;;5.90;94.40;;;;;;5028519;28;20049;-67
2022/02/10 20:19:20;;;;;;;12.20;4.97;;;5.90;94.30;;;;;;5029397;28;20033;-66
2022/02/10 20:21:46;;;;;;;8.82;4.80;;;5.90;94.20;;;;;;5033740;28;20030;-66
2022/02/10 20:24:11;;;;;;;13.35;5.78;;;5.90;93.90;;;;;;5035135;28;20048;-67
2022/02/10 20:26:38;;;;;;;10.73;4.57;;;6.00;94.10;;;;;;5030352;28;20017;-67
2022/02/10 20:29:04;;;;;;;8.15;3.97;;;6.00;93.60;;;;;;5026585;28;20411;-67
2022/02/10 20:31:30;;;;;;;8.50;4.55;;;6.00;93.40;;;;;;5017577;28;20125;-67
2022/02/10 20:33:57;;;;;;;9.68;4.00;;;6.00;93.20;;;;;;5016024;28;20406;-66
2022/02/10 20:36:23;;;;;;;7.47;4.20;;;6.10;92.90;;;;;;5015340;28;20029;-67
2022/02/10 20:39:17;;;;;;;9.07;4.97;;;6.00;93.10;;;;;;5026996;28;20029;-66
2022/02/10 20:41:49;;;;;;;7.82;4.55;;;6.10;93.00;;;;;;5016626;28;20065;-66
2022/02/10 20:44:15;;;;;;;7.50;4.18;;;6.20;92.70;;;;;;5018964;28;20110;-67
2022/02/10 20:46:43;;;;;;;8.25;4.32;;;6.20;92.20;;;;;;5038942;28;20018;-66
2022/02/10 20:49:16;;;;;;;9.07;4.95;;;6.20;91.90;;;;;;5038313;28;20422;-66
2022/02/10 20:51:43;;;;;;;8.07;4.70;;;6.30;91.50;;;;;;5039758;28;20406;-67
2022/02/10 20:54:08;;;;;;;9.52;4.63;;;6.40;91.40;;;;;;5039397;28;20260;-66
2022/02/10 20:56:34;;;;;;;8.40;4.63;;;6.40;91.30;;;;;;5036236;28;20322;-67
2022/02/10 20:59:07;;;;;;;9.07;4.28;;;6.40;91.20;;;;;;5037844;28;20029;-66
2022/02/10 21:01:34;;;;;;;7.35;4.47;;;6.50;91.00;;;;;;5053556;28;20056;-67
2022/02/10 21:04:01;;;;;;;9.88;4.72;;;6.50;90.80;;;;;;5028988;28;20488;-67
2022/02/10 21:06:55;;;;;;;10.85;5.20;;;6.50;90.70;;;;;;5027918;28;20428;-66
2022/02/10 21:09:37;;;;;;;9.70;5.40;;;6.40;91.00;;;;;;5029769;28;20021;-67
2022/02/10 21:12:05;;;;;;;7.72;4.68;;;6.40;90.90;;;;;;5028871;28;20018;-66
2022/02/10 21:14:30;;;;;;;13.35;5.28;;;6.50;90.70;;;;;;5027648;28;20029;-67
2022/02/10 21:17:05;;;;;;;10.30;5.32;;;6.50;90.70;;;;;;5026341;28;20410;-67
2022/02/10 21:19:33;;;;;;;10.00;4.68;;;6.60;90.50;;;;;;5038342;28;20037;-67
2022/02/10 21:21:58;;;;;;;15.23;5.35;;;6.70;90.00;;;;;;5031696;28;20010;-67
2022/02/10 21:24:29;;;;;;;8.45;4.93;;;6.70;90.00;;;;;;5028651;28;20450;-67
2022/02/10 21:29:41;;;;;;;10.77;4.60;;;6.70;89.80;;;;;;5028316;28;20071;-67
2022/02/10 21:32:07;;;;;;;10.02;4.18;;;6.70;89.80;;;;;;5027685;28;20051;-67
2022/02/10 21:34:46;;;;;;;11.05;4.80;;;6.80;89.50;;;;;;5029835;28;20034;-67
2022/02/10 21:37:14;;;;;;;10.27;5.35;;;6.80;89.70;;;;;;5031335;28;20322;-67
2022/02/10 21:39:57;;;;;;;11.88;5.28;;;6.80;89.60;;;;;;5034797;28;20029;-67
2022/02/10 21:55:45;;;;;;;9.35;4.78;;;6.90;89.80;;;;;;5037645;28;20148;-68
2022/02/10 21:59:23;;;;;;;12.75;5.15;;;6.90;89.70;;;;;;5038037;28;20083;-67
2022/02/10 22:19:15;;;;;;;16.17;5.82;;;7.20;90.10;;;;;;5036232;28;19975;-68
2022/02/10 22:21:53;;;;;;;9.90;5.43;;;7.20;90.10;;;;;;5037338;28;20112;-68
2022/02/10 22:24:19;;;;;;;11.45;5.65;;;7.20;90.30;;;;;;5044302;28;20079;-68
2022/02/10 22:26:47;;;;;;;13.30;5.68;;;7.20;90.20;;;;;;5037403;28;20025;-68
2022/02/10 22:29:32;;;;;;;11.73;5.50;;;7.20;90.40;;;;;;5037451;28;20053;-67
2022/02/10 22:36:57;;;;;;;15.55;5.88;;;7.30;90.50;;;;;;5036886;28;20040;-68
2022/02/10 22:39:23;;;;;;;11.20;5.38;;;7.30;90.60;;;;;;5036642;28;20061;-67
2022/02/10 22:41:49;;;;;;;13.18;5.03;;;7.30;90.70;;;;;;5036329;28;20041;-67
2022/02/10 22:44:16;;;;;;;10.32;4.78;;;7.30;90.60;;;;;;5037299;28;20367;-68
2022/02/10 22:46:41;;;;;;;12.00;5.40;;;7.30;90.80;;;;;;5032947;28;20021;-67
2022/02/10 22:49:07;;;;;;;16.25;5.80;;;7.40;90.70;;;;;;5034980;28;20026;-67
2022/02/10 22:51:35;;;;;;;14.18;5.22;;;7.40;90.80;;;;;;5034330;28;20026;-67
2022/02/10 22:54:01;;;;;;;11.38;5.40;;;7.40;90.90;;;;;;5038039;28;20021;-67
2022/02/10 22:56:30;;;;;;;12.52;5.50;;;7.40;90.70;;;;;;5036792;28;20446;-68
2022/02/10 22:59:04;;;;;;;15.00;5.93;;;7.40;90.70;;;;;;5038397;28;20045;-67
2022/02/10 23:01:30;;;;;;;;;;;7.40;90.80;;;;;;5036339;28;20060;-67
2022/02/10 23:03:56;;;;;;;12.50;5.28;;;7.40;91.30;;;;;;5033791;28;19909;-67
2022/02/10 23:06:22;;;;;;;11.10;5.38;;;7.40;92.00;;;;;;5035409;28;20095;-68
2022/02/10 23:08:48;;;;;;;12.13;5.40;;;7.30;92.50;;;;;;5034105;28;20025;-68
2022/02/10 23:11:16;;;;;;;12.50;5.68;;;7.20;92.90;;;;;;5035411;28;20414;-67
2022/02/10 23:13:45;;;;;;;9.32;5.43;;;7.20;92.70;;;;;;5035430;28;20405;-68
2022/02/10 23:16:12;;;;;;;10.43;5.20;;;7.20;93.10;;;;;;5036595;28;20025;-67
2022/02/10 23:18:39;;;;;;;12.80;4.70;;;7.30;92.80;;;;;;5033802;28;20028;-67
2022/02/10 23:21:13;;;;;;;13.90;6.40;;;7.30;92.90;;;;;;5035936;28;20025;-67
2022/02/10 23:23:44;;;;;;;14.00;6.05;;;7.30;93.00;;;;;;5034606;28;20028;-68
2022/02/10 23:26:11;;;;;;;12.43;5.47;;;7.20;93.40;;;;;;5024716;28;20025;-67
2022/02/10 23:28:43;;;;;;;12.55;5.65;;;7.20;93.90;;;;;;5036237;28;20120;-67
2022/02/10 23:31:11;;;;;;;13.23;5.55;;;7.10;94.10;;;;;;5036036;28;20021;-67
2022/02/10 23:33:40;;;;;;;16.80;6.32;;;7.10;94.50;;;;;;5046257;28;20029;-67
2022/02/10 23:38:42;;;;;;;9.60;5.28;;;7.20;94.20;;;;;;5036144;28;20025;-68
2022/02/10 23:43:37;;;;;;;13.40;6.70;;;7.20;94.40;;;;;;5036430;28;20060;-68
2022/02/10 23:46:03;;;;;;;15.10;6.13;;;7.10;94.70;;;;;;5035016;28;20438;-68
2022/02/10 23:48:31;;;;;;;11.48;5.55;;;7.10;94.90;;;;;;5034762;28;20034;-67
2022/02/10 23:50:58;;;;;;;11.68;6.28;;;7.10;95.10;;;;;;5025674;28;20517;-67
2022/02/10 23:53:23;;;;;;;14.70;5.95;;;7.00;95.40;;;;;;5033867;28;20369;-67
2022/02/10 23:55:50;;;;;;;18.05;7.38;;;7.00;95.70;;;;;;5032819;28;20033;-68
